sensor_id;sensor_type;location;lat;lon;timestamp;temperature;humidity
13960;DHT22;7052;51.050;3.716;2022-10-30T00:01:56;16.80;99.90
13960;DHT22;7052;51.050;3.716;2022-10-30T00:04:23;16.70;99.90
13960;DHT22;7052;51.050;3.716;2022-10-30T00:06:50;16.70;99.90
13960;DHT22;7052;51.050;3.716;2022-10-30T00:09:17;16.70;99.90
13960;DHT22;7052;51.050;3.716;2022-10-30T00:11:44;16.70;99.90
13960;DHT22;7052;51.050;3.716;2022-10-30T00:14:12;16.60;99.90
13960;DHT22;7052;51.050;3.716;2022-10-30T00:16:39;16.60;99.90
13960;DHT22;7052;51.050;3.716;2022-10-30T00:19:06;16.60;99.90
13960;DHT22;7052;51.050;3.716;2022-10-30T00:21:33;16.60;99.90
13960;DHT22;7052;51.050;3.716;2022-10-30T00:24:00;16.50;99.90
13960;DHT22;7052;51.050;3.716;2022-10-30T00:26:27;16.50;99.90
13960;DHT22;7052;51.050;3.716;2022-10-30T00:28:55;16.50;99.90
13960;DHT22;7052;51.050;3.716;2022-10-30T00:31:23;16.50;99.90
13960;DHT22;7052;51.050;3.716;2022-10-30T00:33:50;16.50;99.90
13960;DHT22;7052;51.050;3.716;2022-10-30T00:36:18;16.40;99.90
13960;DHT22;7052;51.050;3.716;2022-10-30T00:38:44;16.40;99.90
13960;DHT22;7052;51.050;3.716;2022-10-30T00:41:13;16.40;99.90
13960;DHT22;7052;51.050;3.716;2022-10-30T00:43:41;16.40;99.90
13960;DHT22;7052;51.050;3.716;2022-10-30T00:46:15;16.40;99.90
13960;DHT22;7052;51.050;3.716;2022-10-30T00:48:49;16.40;99.90
13960;DHT22;7052;51.050;3.716;2022-10-30T00:51:18;16.30;99.90
13960;DHT22;7052;51.050;3.716;2022-10-30T00:53:46;16.30;99.90
13960;DHT22;7052;51.050;3.716;2022-10-30T00:56:15;16.30;99.90
13960;DHT22;7052;51.050;3.716;2022-10-30T00:58:47;16.30;99.90
13960;DHT22;7052;51.050;3.716;2022-10-30T01:01:17;16.30;99.90
13960;DHT22;7052;51.050;3.716;2022-10-30T01:03:49;16.30;99.90
13960;DHT22;7052;51.050;3.716;2022-10-30T01:06:19;16.20;99.90
13960;DHT22;7052;51.050;3.716;2022-10-30T01:08:47;16.30;99.90
13960;DHT22;7052;51.050;3.716;2022-10-30T01:11:15;16.30;99.90
13960;DHT22;7052;51.050;3.716;2022-10-30T01:13:43;16.20;99.90
13960;DHT22;7052;51.050;3.716;2022-10-30T01:16:28;16.10;99.90
13960;DHT22;7052;51.050;3.716;2022-10-30T01:19:02;16.20;99.90
13960;DHT22;7052;51.050;3.716;2022-10-30T01:21:40;16.10;99.90
13960;DHT22;7052;51.050;3.716;2022-10-30T01:24:27;16.10;99.90
13960;DHT22;7052;51.050;3.716;2022-10-30T01:27:08;16.10;99.90
13960;DHT22;7052;51.050;3.716;2022-10-30T01:29:52;16.10;99.90
13960;DHT22;7052;51.050;3.716;2022-10-30T01:32:40;16.10;99.90
13960;DHT22;7052;51.050;3.716;2022-10-30T01:35:15;16.10;99.90
13960;DHT22;7052;51.050;3.716;2022-10-30T01:37:46;16.10;99.90
13960;DHT22;7052;51.050;3.716;2022-10-30T01:40:17;16.10;99.90
13960;DHT22;7052;51.050;3.716;2022-10-30T01:42:47;16.10;99.90
13960;DHT22;7052;51.050;3.716;2022-10-30T01:45:20;16.10;99.90
13960;DHT22;7052;51.050;3.716;2022-10-30T01:48:05;16.00;99.90
13960;DHT22;7052;51.050;3.716;2022-10-30T01:50:40;16.00;99.90
13960;DHT22;7052;51.050;3.716;2022-10-30T01:53:18;16.00;99.90
13960;DHT22;7052;51.050;3.716;2022-10-30T01:55:56;16.00;99.90
13960;DHT22;7052;51.050;3.716;2022-10-30T01:58:33;15.90;99.90
13960;DHT22;7052;51.050;3.716;2022-10-30T02:01:03;15.90;99.90
13960;DHT22;7052;51.050;3.716;2022-10-30T02:03:30;15.90;99.90
13960;DHT22;7052;51.050;3.716;2022-10-30T02:05:58;15.90;99.90
13960;DHT22;7052;51.050;3.716;2022-10-30T02:08:26;15.90;99.90
13960;DHT22;7052;51.050;3.716;2022-10-30T02:10:53;15.90;99.90
13960;DHT22;7052;51.050;3.716;2022-10-30T02:13:21;15.90;99.90
13960;DHT22;7052;51.050;3.716;2022-10-30T02:15:48;15.90;99.90
13960;DHT22;7052;51.050;3.716;2022-10-30T02:18:15;15.90;99.90
13960;DHT22;7052;51.050;3.716;2022-10-30T02:20:43;15.90;99.90
13960;DHT22;7052;51.050;3.716;2022-10-30T02:23:10;15.80;99.90
13960;DHT22;7052;51.050;3.716;2022-10-30T02:25:43;15.80;99.90
13960;DHT22;7052;51.050;3.716;2022-10-30T02:28:10;15.80;99.90
13960;DHT22;7052;51.050;3.716;2022-10-30T02:30:37;15.80;99.90
13960;DHT22;7052;51.050;3.716;2022-10-30T02:33:04;15.70;99.90
13960;DHT22;7052;51.050;3.716;2022-10-30T02:35:30;15.80;99.90
13960;DHT22;7052;51.050;3.716;2022-10-30T02:38:01;15.80;99.90
13960;DHT22;7052;51.050;3.716;2022-10-30T02:40:28;15.80;99.90
13960;DHT22;7052;51.050;3.716;2022-10-30T02:42:55;15.80;99.90
13960;DHT22;7052;51.050;3.716;2022-10-30T02:45:22;15.80;99.90
13960;DHT22;7052;51.050;3.716;2022-10-30T02:47:49;15.70;99.90
13960;DHT22;7052;51.050;3.716;2022-10-30T02:50:16;15.70;99.90
13960;DHT22;7052;51.050;3.716;2022-10-30T02:52:42;15.70;99.90
13960;DHT22;7052;51.050;3.716;2022-10-30T02:55:11;15.70;99.90
13960;DHT22;7052;51.050;3.716;2022-10-30T02:57:37;15.60;99.90
13960;DHT22;7052;51.050;3.716;2022-10-30T03:00:05;15.60;99.90
13960;DHT22;7052;51.050;3.716;2022-10-30T03:02:32;15.60;99.90
13960;DHT22;7052;51.050;3.716;2022-10-30T03:04:59;15.60;99.90
13960;DHT22;7052;51.050;3.716;2022-10-30T03:07:26;15.50;99.90
13960;DHT22;7052;51.050;3.716;2022-10-30T03:09:53;15.50;99.90
13960;DHT22;7052;51.050;3.716;2022-10-30T03:12:21;15.50;99.90
13960;DHT22;7052;51.050;3.716;2022-10-30T03:14:48;15.50;99.90
13960;DHT22;7052;51.050;3.716;2022-10-30T03:17:15;15.50;99.90
13960;DHT22;7052;51.050;3.716;2022-10-30T03:19:41;15.50;99.90
13960;DHT22;7052;51.050;3.716;2022-10-30T03:22:08;15.50;99.90
13960;DHT22;7052;51.050;3.716;2022-10-30T03:24:35;15.40;99.90
13960;DHT22;7052;51.050;3.716;2022-10-30T03:27:02;15.40;99.90
13960;DHT22;7052;51.050;3.716;2022-10-30T03:29:31;15.40;99.90
13960;DHT22;7052;51.050;3.716;2022-10-30T03:31:57;15.40;99.90
13960;DHT22;7052;51.050;3.716;2022-10-30T03:34:24;15.40;99.90
13960;DHT22;7052;51.050;3.716;2022-10-30T03:36:52;15.40;99.90
13960;DHT22;7052;51.050;3.716;2022-10-30T03:39:19;15.40;99.90
13960;DHT22;7052;51.050;3.716;2022-10-30T03:41:46;15.40;99.90
13960;DHT22;7052;51.050;3.716;2022-10-30T03:44:12;15.40;99.90
13960;DHT22;7052;51.050;3.716;2022-10-30T03:46:41;15.30;99.90
13960;DHT22;7052;51.050;3.716;2022-10-30T03:49:07;15.40;99.90
13960;DHT22;7052;51.050;3.716;2022-10-30T03:51:34;15.30;99.90
13960;DHT22;7052;51.050;3.716;2022-10-30T03:54:01;15.30;99.90
13960;DHT22;7052;51.050;3.716;2022-10-30T03:56:28;15.30;99.90
13960;DHT22;7052;51.050;3.716;2022-10-30T03:58:54;15.30;99.90
13960;DHT22;7052;51.050;3.716;2022-10-30T04:01:21;15.30;99.90
13960;DHT22;7052;51.050;3.716;2022-10-30T04:03:49;15.30;99.90
13960;DHT22;7052;51.050;3.716;2022-10-30T04:06:16;15.30;99.90
13960;DHT22;7052;51.050;3.716;2022-10-30T04:08:43;15.20;99.90
13960;DHT22;7052;51.050;3.716;2022-10-30T04:11:10;15.20;99.90
13960;DHT22;7052;51.050;3.716;2022-10-30T04:13:37;15.20;99.90
13960;DHT22;7052;51.050;3.716;2022-10-30T04:16:04;15.20;99.90
13960;DHT22;7052;51.050;3.716;2022-10-30T04:18:31;15.20;99.90
13960;DHT22;7052;51.050;3.716;2022-10-30T04:21:00;15.20;99.90
13960;DHT22;7052;51.050;3.716;2022-10-30T04:23:27;15.20;99.90
13960;DHT22;7052;51.050;3.716;2022-10-30T04:25:53;15.20;99.90
13960;DHT22;7052;51.050;3.716;2022-10-30T04:28:20;15.10;99.90
13960;DHT22;7052;51.050;3.716;2022-10-30T04:30:47;15.10;99.90
13960;DHT22;7052;51.050;3.716;2022-10-30T04:33:14;15.10;99.90
13960;DHT22;7052;51.050;3.716;2022-10-30T04:35:41;15.10;99.90
13960;DHT22;7052;51.050;3.716;2022-10-30T04:38:10;15.10;99.90
13960;DHT22;7052;51.050;3.716;2022-10-30T04:40:39;15.10;99.90
13960;DHT22;7052;51.050;3.716;2022-10-30T04:43:06;15.10;99.90
13960;DHT22;7052;51.050;3.716;2022-10-30T04:45:34;15.10;99.90
13960;DHT22;7052;51.050;3.716;2022-10-30T04:48:02;15.10;99.90
13960;DHT22;7052;51.050;3.716;2022-10-30T04:50:30;15.10;99.90
13960;DHT22;7052;51.050;3.716;2022-10-30T04:53:01;15.10;99.90
13960;DHT22;7052;51.050;3.716;2022-10-30T04:55:30;15.00;99.90
13960;DHT22;7052;51.050;3.716;2022-10-30T04:57:57;15.00;99.90
13960;DHT22;7052;51.050;3.716;2022-10-30T05:00:25;15.00;99.90
13960;DHT22;7052;51.050;3.716;2022-10-30T05:02:52;15.00;99.90
13960;DHT22;7052;51.050;3.716;2022-10-30T05:05:19;15.00;99.90
13960;DHT22;7052;51.050;3.716;2022-10-30T05:07:46;14.90;99.90
13960;DHT22;7052;51.050;3.716;2022-10-30T05:10:13;14.90;99.90
13960;DHT22;7052;51.050;3.716;2022-10-30T05:12:43;14.90;99.90
13960;DHT22;7052;51.050;3.716;2022-10-30T05:15:11;14.80;99.90
13960;DHT22;7052;51.050;3.716;2022-10-30T05:17:38;14.90;99.90
13960;DHT22;7052;51.050;3.716;2022-10-30T05:20:06;14.90;99.90
13960;DHT22;7052;51.050;3.716;2022-10-30T05:22:33;14.90;99.90
13960;DHT22;7052;51.050;3.716;2022-10-30T05:25:00;14.90;99.90
13960;DHT22;7052;51.050;3.716;2022-10-30T05:27:27;14.90;99.90
13960;DHT22;7052;51.050;3.716;2022-10-30T05:29:55;14.90;99.90
13960;DHT22;7052;51.050;3.716;2022-10-30T05:32:22;14.90;99.90
13960;DHT22;7052;51.050;3.716;2022-10-30T05:34:48;14.90;99.90
13960;DHT22;7052;51.050;3.716;2022-10-30T05:37:15;14.90;99.90
13960;DHT22;7052;51.050;3.716;2022-10-30T05:39:47;14.90;99.90
13960;DHT22;7052;51.050;3.716;2022-10-30T05:42:13;15.00;99.90
13960;DHT22;7052;51.050;3.716;2022-10-30T05:44:40;15.00;99.90
13960;DHT22;7052;51.050;3.716;2022-10-30T05:47:10;15.00;99.90
13960;DHT22;7052;51.050;3.716;2022-10-30T05:49:37;15.00;99.90
13960;DHT22;7052;51.050;3.716;2022-10-30T05:52:03;15.00;99.90
13960;DHT22;7052;51.050;3.716;2022-10-30T05:54:31;15.00;99.90
13960;DHT22;7052;51.050;3.716;2022-10-30T05:56:59;15.00;99.90
13960;DHT22;7052;51.050;3.716;2022-10-30T05:59:27;14.90;99.90
13960;DHT22;7052;51.050;3.716;2022-10-30T06:01:54;14.90;99.90
13960;DHT22;7052;51.050;3.716;2022-10-30T06:04:22;14.90;99.90
13960;DHT22;7052;51.050;3.716;2022-10-30T06:06:49;14.90;99.90
13960;DHT22;7052;51.050;3.716;2022-10-30T06:09:16;14.90;99.90
13960;DHT22;7052;51.050;3.716;2022-10-30T06:11:42;14.90;99.90
13960;DHT22;7052;51.050;3.716;2022-10-30T06:14:10;14.90;99.90
13960;DHT22;7052;51.050;3.716;2022-10-30T06:16:37;14.90;99.90
13960;DHT22;7052;51.050;3.716;2022-10-30T06:19:04;14.80;99.90
13960;DHT22;7052;51.050;3.716;2022-10-30T06:21:32;14.80;99.90
13960;DHT22;7052;51.050;3.716;2022-10-30T06:23:59;14.90;99.90
13960;DHT22;7052;51.050;3.716;2022-10-30T06:26:26;14.80;99.90
13960;DHT22;7052;51.050;3.716;2022-10-30T06:28:53;14.90;99.90
13960;DHT22;7052;51.050;3.716;2022-10-30T06:31:19;14.90;99.90
13960;DHT22;7052;51.050;3.716;2022-10-30T06:33:46;14.80;99.90
13960;DHT22;7052;51.050;3.716;2022-10-30T06:36:13;14.90;99.90
13960;DHT22;7052;51.050;3.716;2022-10-30T06:38:43;14.90;99.90
13960;DHT22;7052;51.050;3.716;2022-10-30T06:41:10;14.90;99.90
13960;DHT22;7052;51.050;3.716;2022-10-30T06:43:36;14.90;99.90
13960;DHT22;7052;51.050;3.716;2022-10-30T06:46:03;14.90;99.90
13960;DHT22;7052;51.050;3.716;2022-10-30T06:48:30;14.90;99.90
13960;DHT22;7052;51.050;3.716;2022-10-30T06:50:59;14.90;99.90
13960;DHT22;7052;51.050;3.716;2022-10-30T06:53:27;14.90;99.90
13960;DHT22;7052;51.050;3.716;2022-10-30T06:55:56;14.90;99.90
13960;DHT22;7052;51.050;3.716;2022-10-30T06:58:24;14.90;99.90
13960;DHT22;7052;51.050;3.716;2022-10-30T07:00:52;15.00;99.90
13960;DHT22;7052;51.050;3.716;2022-10-30T07:03:19;15.00;99.90
13960;DHT22;7052;51.050;3.716;2022-10-30T07:05:46;15.00;99.90
13960;DHT22;7052;51.050;3.716;2022-10-30T07:08:13;15.00;99.90
13960;DHT22;7052;51.050;3.716;2022-10-30T07:10:40;15.00;99.90
13960;DHT22;7052;51.050;3.716;2022-10-30T07:13:08;15.00;99.90
13960;DHT22;7052;51.050;3.716;2022-10-30T07:15:35;15.00;99.90
13960;DHT22;7052;51.050;3.716;2022-10-30T07:18:02;15.10;99.90
13960;DHT22;7052;51.050;3.716;2022-10-30T07:20:31;15.10;99.90
13960;DHT22;7052;51.050;3.716;2022-10-30T07:22:58;15.20;99.90
13960;DHT22;7052;51.050;3.716;2022-10-30T07:25:25;15.20;99.90
13960;DHT22;7052;51.050;3.716;2022-10-30T07:27:53;15.20;99.90
13960;DHT22;7052;51.050;3.716;2022-10-30T07:30:23;15.30;99.90
13960;DHT22;7052;51.050;3.716;2022-10-30T07:32:58;15.30;99.90
13960;DHT22;7052;51.050;3.716;2022-10-30T07:35:25;15.30;99.90
13960;DHT22;7052;51.050;3.716;2022-10-30T07:37:52;15.40;99.90
13960;DHT22;7052;51.050;3.716;2022-10-30T07:40:20;15.40;99.90
13960;DHT22;7052;51.050;3.716;2022-10-30T07:42:54;15.40;99.90
13960;DHT22;7052;51.050;3.716;2022-10-30T07:45:22;15.40;99.90
13960;DHT22;7052;51.050;3.716;2022-10-30T07:47:49;15.50;99.90
13960;DHT22;7052;51.050;3.716;2022-10-30T07:50:16;15.50;99.90
13960;DHT22;7052;51.050;3.716;2022-10-30T07:52:44;15.50;99.90
13960;DHT22;7052;51.050;3.716;2022-10-30T07:55:11;15.50;99.90
13960;DHT22;7052;51.050;3.716;2022-10-30T07:57:38;15.60;99.90
13960;DHT22;7052;51.050;3.716;2022-10-30T08:00:08;15.60;99.90
13960;DHT22;7052;51.050;3.716;2022-10-30T08:02:37;15.70;99.90
13960;DHT22;7052;51.050;3.716;2022-10-30T08:05:04;15.70;99.90
13960;DHT22;7052;51.050;3.716;2022-10-30T08:07:32;15.80;99.90
13960;DHT22;7052;51.050;3.716;2022-10-30T08:09:59;15.80;99.90
13960;DHT22;7052;51.050;3.716;2022-10-30T08:12:26;15.80;99.90
13960;DHT22;7052;51.050;3.716;2022-10-30T08:14:56;15.80;99.90
13960;DHT22;7052;51.050;3.716;2022-10-30T08:17:23;15.90;99.90
13960;DHT22;7052;51.050;3.716;2022-10-30T08:19:51;15.90;99.90
13960;DHT22;7052;51.050;3.716;2022-10-30T08:22:18;15.90;99.90
13960;DHT22;7052;51.050;3.716;2022-10-30T08:24:45;16.00;99.90
13960;DHT22;7052;51.050;3.716;2022-10-30T08:27:11;16.10;99.90
13960;DHT22;7052;51.050;3.716;2022-10-30T08:29:38;16.10;99.90
13960;DHT22;7052;51.050;3.716;2022-10-30T08:32:06;16.20;99.90
13960;DHT22;7052;51.050;3.716;2022-10-30T08:34:32;16.40;99.90
13960;DHT22;7052;51.050;3.716;2022-10-30T08:37:01;16.50;99.90
13960;DHT22;7052;51.050;3.716;2022-10-30T08:39:27;16.60;99.90
13960;DHT22;7052;51.050;3.716;2022-10-30T08:41:56;16.70;99.90
13960;DHT22;7052;51.050;3.716;2022-10-30T08:44:23;16.70;99.90
13960;DHT22;7052;51.050;3.716;2022-10-30T08:46:50;16.80;99.90
13960;DHT22;7052;51.050;3.716;2022-10-30T08:49:17;16.80;99.90
13960;DHT22;7052;51.050;3.716;2022-10-30T08:51:43;16.90;99.90
13960;DHT22;7052;51.050;3.716;2022-10-30T08:54:12;16.90;99.90
13960;DHT22;7052;51.050;3.716;2022-10-30T08:56:39;17.00;99.90
13960;DHT22;7052;51.050;3.716;2022-10-30T08:59:06;17.00;99.90
13960;DHT22;7052;51.050;3.716;2022-10-30T09:01:33;17.10;99.90
13960;DHT22;7052;51.050;3.716;2022-10-30T09:04:03;17.10;99.90
13960;DHT22;7052;51.050;3.716;2022-10-30T09:06:30;17.20;99.90
13960;DHT22;7052;51.050;3.716;2022-10-30T09:08:57;17.20;99.90
13960;DHT22;7052;51.050;3.716;2022-10-30T09:11:25;17.10;99.90
13960;DHT22;7052;51.050;3.716;2022-10-30T09:13:52;17.10;99.90
13960;DHT22;7052;51.050;3.716;2022-10-30T09:16:19;17.20;99.90
13960;DHT22;7052;51.050;3.716;2022-10-30T09:18:46;17.30;99.90
13960;DHT22;7052;51.050;3.716;2022-10-30T09:21:12;17.30;99.90
13960;DHT22;7052;51.050;3.716;2022-10-30T09:23:41;17.40;99.90
13960;DHT22;7052;51.050;3.716;2022-10-30T09:26:09;17.40;99.90
13960;DHT22;7052;51.050;3.716;2022-10-30T09:28:37;17.50;99.90
13960;DHT22;7052;51.050;3.716;2022-10-30T09:31:04;17.60;99.90
13960;DHT22;7052;51.050;3.716;2022-10-30T09:33:32;17.60;99.90
13960;DHT22;7052;51.050;3.716;2022-10-30T09:36:00;17.80;99.90
13960;DHT22;7052;51.050;3.716;2022-10-30T09:38:28;17.90;99.90
13960;DHT22;7052;51.050;3.716;2022-10-30T09:41:10;18.00;99.90
13960;DHT22;7052;51.050;3.716;2022-10-30T09:43:50;18.10;99.90
13960;DHT22;7052;51.050;3.716;2022-10-30T09:46:32;18.20;99.90
13960;DHT22;7052;51.050;3.716;2022-10-30T09:49:19;18.20;99.90
13960;DHT22;7052;51.050;3.716;2022-10-30T09:52:21;18.30;99.90
13960;DHT22;7052;51.050;3.716;2022-10-30T09:55:13;18.30;99.90
13960;DHT22;7052;51.050;3.716;2022-10-30T09:57:47;18.30;99.90
13960;DHT22;7052;51.050;3.716;2022-10-30T10:00:19;18.30;99.90
13960;DHT22;7052;51.050;3.716;2022-10-30T10:03:02;18.40;99.90
13960;DHT22;7052;51.050;3.716;2022-10-30T10:05:39;18.40;99.90
13960;DHT22;7052;51.050;3.716;2022-10-30T10:08:13;18.40;99.90
13960;DHT22;7052;51.050;3.716;2022-10-30T10:10:43;18.40;99.90
13960;DHT22;7052;51.050;3.716;2022-10-30T10:13:20;18.40;99.90
13960;DHT22;7052;51.050;3.716;2022-10-30T10:15:53;18.50;99.90
13960;DHT22;7052;51.050;3.716;2022-10-30T10:18:25;18.50;99.90
13960;DHT22;7052;51.050;3.716;2022-10-30T10:20:57;18.60;99.90
13960;DHT22;7052;51.050;3.716;2022-10-30T10:23:32;18.70;99.90
13960;DHT22;7052;51.050;3.716;2022-10-30T10:26:13;18.70;99.90
13960;DHT22;7052;51.050;3.716;2022-10-30T10:28:50;18.80;99.90
13960;DHT22;7052;51.050;3.716;2022-10-30T10:31:34;18.90;99.90
13960;DHT22;7052;51.050;3.716;2022-10-30T10:34:31;18.90;99.90
13960;DHT22;7052;51.050;3.716;2022-10-30T10:37:10;19.00;99.90
13960;DHT22;7052;51.050;3.716;2022-10-30T10:40:01;19.00;99.90
13960;DHT22;7052;51.050;3.716;2022-10-30T10:42:34;19.10;99.90
13960;DHT22;7052;51.050;3.716;2022-10-30T10:45:24;19.20;99.90
13960;DHT22;7052;51.050;3.716;2022-10-30T10:48:06;19.20;99.90
13960;DHT22;7052;51.050;3.716;2022-10-30T10:50:46;19.20;99.90
13960;DHT22;7052;51.050;3.716;2022-10-30T10:53:18;19.30;99.90
13960;DHT22;7052;51.050;3.716;2022-10-30T10:55:50;19.30;99.90
13960;DHT22;7052;51.050;3.716;2022-10-30T10:58:25;19.40;99.90
13960;DHT22;7052;51.050;3.716;2022-10-30T11:00:55;19.40;99.90
13960;DHT22;7052;51.050;3.716;2022-10-30T11:03:31;19.40;99.90
13960;DHT22;7052;51.050;3.716;2022-10-30T11:06:10;19.50;99.90
13960;DHT22;7052;51.050;3.716;2022-10-30T11:08:38;19.50;99.90
13960;DHT22;7052;51.050;3.716;2022-10-30T11:11:06;19.40;99.90
13960;DHT22;7052;51.050;3.716;2022-10-30T11:13:35;19.50;99.90
13960;DHT22;7052;51.050;3.716;2022-10-30T11:16:08;19.50;99.90
13960;DHT22;7052;51.050;3.716;2022-10-30T11:18:41;19.40;99.90
13960;DHT22;7052;51.050;3.716;2022-10-30T11:21:09;19.50;99.90
13960;DHT22;7052;51.050;3.716;2022-10-30T11:23:38;19.40;99.90
13960;DHT22;7052;51.050;3.716;2022-10-30T11:26:38;19.30;99.90
13960;DHT22;7052;51.050;3.716;2022-10-30T11:29:11;19.30;99.90
13960;DHT22;7052;51.050;3.716;2022-10-30T11:31:39;19.30;99.90
13960;DHT22;7052;51.050;3.716;2022-10-30T11:34:22;19.30;99.90
13960;DHT22;7052;51.050;3.716;2022-10-30T11:36:50;19.30;99.90
13960;DHT22;7052;51.050;3.716;2022-10-30T11:39:19;19.30;99.90
13960;DHT22;7052;51.050;3.716;2022-10-30T11:41:53;19.40;99.90
13960;DHT22;7052;51.050;3.716;2022-10-30T11:44:22;19.40;99.90
13960;DHT22;7052;51.050;3.716;2022-10-30T11:46:50;19.50;99.90
13960;DHT22;7052;51.050;3.716;2022-10-30T11:49:29;19.60;99.90
13960;DHT22;7052;51.050;3.716;2022-10-30T11:51:57;19.70;99.90
13960;DHT22;7052;51.050;3.716;2022-10-30T11:54:24;19.70;99.90
13960;DHT22;7052;51.050;3.716;2022-10-30T11:56:51;19.80;99.90
13960;DHT22;7052;51.050;3.716;2022-10-30T11:59:21;19.90;99.90
13960;DHT22;7052;51.050;3.716;2022-10-30T12:02:00;19.90;99.90
13960;DHT22;7052;51.050;3.716;2022-10-30T12:04:29;19.90;99.90
13960;DHT22;7052;51.050;3.716;2022-10-30T12:07:08;19.90;99.90
13960;DHT22;7052;51.050;3.716;2022-10-30T12:09:42;19.90;99.90
13960;DHT22;7052;51.050;3.716;2022-10-30T12:12:10;19.90;99.90
13960;DHT22;7052;51.050;3.716;2022-10-30T12:14:37;20.00;99.90
13960;DHT22;7052;51.050;3.716;2022-10-30T12:17:04;20.00;99.90
13960;DHT22;7052;51.050;3.716;2022-10-30T12:19:32;20.10;99.90
13960;DHT22;7052;51.050;3.716;2022-10-30T12:22:01;20.10;99.90
13960;DHT22;7052;51.050;3.716;2022-10-30T12:24:31;20.10;99.90
13960;DHT22;7052;51.050;3.716;2022-10-30T12:27:01;20.20;99.90
13960;DHT22;7052;51.050;3.716;2022-10-30T12:29:38;20.20;99.90
13960;DHT22;7052;51.050;3.716;2022-10-30T12:32:08;20.10;99.90
13960;DHT22;7052;51.050;3.716;2022-10-30T12:34:43;20.10;99.90
13960;DHT22;7052;51.050;3.716;2022-10-30T12:37:15;20.10;99.90
13960;DHT22;7052;51.050;3.716;2022-10-30T12:39:50;20.10;99.90
13960;DHT22;7052;51.050;3.716;2022-10-30T12:42:18;20.10;99.90
13960;DHT22;7052;51.050;3.716;2022-10-30T12:44:49;20.10;99.90
13960;DHT22;7052;51.050;3.716;2022-10-30T12:47:24;20.10;99.90
13960;DHT22;7052;51.050;3.716;2022-10-30T12:49:57;20.10;99.90
13960;DHT22;7052;51.050;3.716;2022-10-30T12:52:32;20.20;99.90
13960;DHT22;7052;51.050;3.716;2022-10-30T12:55:02;20.20;99.90
13960;DHT22;7052;51.050;3.716;2022-10-30T12:57:34;20.10;99.90
13960;DHT22;7052;51.050;3.716;2022-10-30T13:00:05;20.00;99.90
13960;DHT22;7052;51.050;3.716;2022-10-30T13:02:39;20.00;99.90
13960;DHT22;7052;51.050;3.716;2022-10-30T13:05:23;19.90;99.90
13960;DHT22;7052;51.050;3.716;2022-10-30T13:07:59;19.90;99.90
13960;DHT22;7052;51.050;3.716;2022-10-30T13:10:32;19.90;99.90
13960;DHT22;7052;51.050;3.716;2022-10-30T13:13:04;20.00;99.90
13960;DHT22;7052;51.050;3.716;2022-10-30T13:15:37;20.10;99.90
13960;DHT22;7052;51.050;3.716;2022-10-30T13:18:14;20.00;99.90
13960;DHT22;7052;51.050;3.716;2022-10-30T13:20:47;20.00;99.90
13960;DHT22;7052;51.050;3.716;2022-10-30T13:23:22;20.00;99.90
13960;DHT22;7052;51.050;3.716;2022-10-30T13:26:02;19.90;99.90
13960;DHT22;7052;51.050;3.716;2022-10-30T13:28:34;20.00;99.90
13960;DHT22;7052;51.050;3.716;2022-10-30T13:31:12;19.90;99.90
13960;DHT22;7052;51.050;3.716;2022-10-30T13:33:50;19.80;99.90
13960;DHT22;7052;51.050;3.716;2022-10-30T13:36:26;19.70;99.90
13960;DHT22;7052;51.050;3.716;2022-10-30T13:38:59;19.60;99.90
13960;DHT22;7052;51.050;3.716;2022-10-30T13:41:37;19.50;99.90
13960;DHT22;7052;51.050;3.716;2022-10-30T13:44:17;19.60;99.90
13960;DHT22;7052;51.050;3.716;2022-10-30T13:46:58;19.50;99.90
13960;DHT22;7052;51.050;3.716;2022-10-30T13:49:48;19.50;99.90
13960;DHT22;7052;51.050;3.716;2022-10-30T13:52:23;19.40;99.90
13960;DHT22;7052;51.050;3.716;2022-10-30T13:54:57;19.40;99.90
13960;DHT22;7052;51.050;3.716;2022-10-30T13:57:29;19.40;99.90
13960;DHT22;7052;51.050;3.716;2022-10-30T14:00:02;19.40;99.90
13960;DHT22;7052;51.050;3.716;2022-10-30T14:02:50;19.40;99.90
13960;DHT22;7052;51.050;3.716;2022-10-30T14:05:26;19.30;99.90
13960;DHT22;7052;51.050;3.716;2022-10-30T14:08:02;19.30;99.90
13960;DHT22;7052;51.050;3.716;2022-10-30T14:10:42;19.20;99.90
13960;DHT22;7052;51.050;3.716;2022-10-30T14:13:15;19.10;99.90
13960;DHT22;7052;51.050;3.716;2022-10-30T14:15:43;19.00;99.90
13960;DHT22;7052;51.050;3.716;2022-10-30T14:18:25;18.90;99.90
13960;DHT22;7052;51.050;3.716;2022-10-30T14:20:53;18.90;99.90
13960;DHT22;7052;51.050;3.716;2022-10-30T14:23:24;18.80;99.90
13960;DHT22;7052;51.050;3.716;2022-10-30T14:26:11;18.80;99.90
13960;DHT22;7052;51.050;3.716;2022-10-30T14:28:40;18.60;99.90
13960;DHT22;7052;51.050;3.716;2022-10-30T14:31:09;18.40;99.90
13960;DHT22;7052;51.050;3.716;2022-10-30T14:33:48;18.30;99.90
13960;DHT22;7052;51.050;3.716;2022-10-30T14:36:18;18.20;99.90
13960;DHT22;7052;51.050;3.716;2022-10-30T14:38:58;18.20;99.90
13960;DHT22;7052;51.050;3.716;2022-10-30T14:41:46;18.10;99.90
13960;DHT22;7052;51.050;3.716;2022-10-30T14:50:31;18.10;99.90
13960;DHT22;7052;51.050;3.716;2022-10-30T14:53:16;18.10;99.90
13960;DHT22;7052;51.050;3.716;2022-10-30T14:55:55;18.10;99.90
13960;DHT22;7052;51.050;3.716;2022-10-30T14:58:24;18.10;99.90
13960;DHT22;7052;51.050;3.716;2022-10-30T15:01:19;18.00;99.90
13960;DHT22;7052;51.050;3.716;2022-10-30T15:03:55;18.00;99.90
13960;DHT22;7052;51.050;3.716;2022-10-30T15:06:30;18.00;99.90
13960;DHT22;7052;51.050;3.716;2022-10-30T15:09:07;17.90;99.90
13960;DHT22;7052;51.050;3.716;2022-10-30T15:14:55;17.90;99.90
13960;DHT22;7052;51.050;3.716;2022-10-30T15:17:29;17.90;99.90
13960;DHT22;7052;51.050;3.716;2022-10-30T15:19:58;17.90;99.90
13960;DHT22;7052;51.050;3.716;2022-10-30T15:22:28;17.90;99.90
13960;DHT22;7052;51.050;3.716;2022-10-30T15:24:56;17.80;99.90
13960;DHT22;7052;51.050;3.716;2022-10-30T15:27:25;17.90;99.90
13960;DHT22;7052;51.050;3.716;2022-10-30T15:29:55;17.80;99.90
13960;DHT22;7052;51.050;3.716;2022-10-30T15:32:25;17.80;99.90
13960;DHT22;7052;51.050;3.716;2022-10-30T15:34:53;17.80;99.90
13960;DHT22;7052;51.050;3.716;2022-10-30T15:37:20;17.80;99.90
13960;DHT22;7052;51.050;3.716;2022-10-30T15:39:47;17.80;99.90
13960;DHT22;7052;51.050;3.716;2022-10-30T15:42:15;17.80;99.90
13960;DHT22;7052;51.050;3.716;2022-10-30T15:44:44;17.70;99.90
13960;DHT22;7052;51.050;3.716;2022-10-30T15:47:15;17.80;99.90
13960;DHT22;7052;51.050;3.716;2022-10-30T15:49:47;17.70;99.90
13960;DHT22;7052;51.050;3.716;2022-10-30T15:52:18;17.70;99.90
13960;DHT22;7052;51.050;3.716;2022-10-30T15:54:47;17.70;99.90
13960;DHT22;7052;51.050;3.716;2022-10-30T15:57:22;17.60;99.90
13960;DHT22;7052;51.050;3.716;2022-10-30T15:59:55;17.60;99.90
13960;DHT22;7052;51.050;3.716;2022-10-30T16:02:25;17.60;99.90
13960;DHT22;7052;51.050;3.716;2022-10-30T16:04:53;17.60;99.90
13960;DHT22;7052;51.050;3.716;2022-10-30T16:07:22;17.60;99.90
13960;DHT22;7052;51.050;3.716;2022-10-30T16:09:54;17.50;99.90
13960;DHT22;7052;51.050;3.716;2022-10-30T16:12:26;17.50;99.90
13960;DHT22;7052;51.050;3.716;2022-10-30T16:14:53;17.50;99.90
13960;DHT22;7052;51.050;3.716;2022-10-30T16:17:21;17.50;99.90